Ashley, Wisconsin
Current Conditions -  °F | °C
As of 11:45 AM on Saturday 25 Oct 2014 (Local Time) from KCWA Reporting Station
Clear Clear  
Wind Chill: 14°   Ceiling: Unl
Heat Index: 14°   Visibility: 10mi
Dew Point:   Wind: 21mph
Humidity: 41%   Direction: 290°WNW
Pressure: 29.91"   Gusts: 25mph
Location:  44.7605°N, 89.5918°W
Report Text: KCWA 251645Z 29018G22KT 10SM SKC 14/01 A2991
Loading
Personal Weather Stations






























Interactive Weather Map
Tropical Storm Tracking
New forecast layout! Learn more

10-Day Weather Forecast

Advertisements
Track Severe Weather on mobile